Upperglade, WV (26266)

11:09 AM EDT on July 29, 2016 (GMT -0400)
The Family Center | | Change Station

Elev 2192 ft 38.22 °N, 80.53 °W | Updated 11 minutes ago

Overcast
Overcast
70.7 °F
Feels Like 70.7 °F
N
0.0
Wind Variable Wind from East
Gusts 6.0 mph

Today
High -- | Low -- °F
--% Chance of Precip.
Yesterday
High -- | Low -- °F
Precip. -- in
Pressure 30.04 in
Visibility 10.0 miles
Clouds Scattered Clouds 3100 ft
Overcast 3900 ft
Dew Point 67 °F
Humidity 89%
Rainfall 0.18 in
Snow Depth Not available.
6:21 AM 8:34 PM
Waning Crescent, 21% visible
METAR KLWB 291455Z AUTO 27004KT 10SM SCT031 OVC039 22/18 A3004 RMK AO2 T02180182
Pressure 30.04 in
Visibility 10.0 miles
Clouds Scattered Clouds 3100 ft
Overcast 3900 ft
Dew Point 67 °F
Humidity 89%
Rainfall 0.18 in
Snow Depth Not available.
6:21 AM 8:34 PM
Waning Crescent, 21% visible
METAR KLWB 291455Z AUTO 27004KT 10SM SCT031 OVC039 22/18 A3004 RMK AO2 T02180182

10-Day Weather Forecast

Almanac

Astronomy

Jul. 29, 2016 Rise Set
Actual Time
Civil Twilight
Nautical Twilight
Astronomical Twilight
Moon
Length of Visible Light
Length of Day
Tomorrow will be .
, % of the Moon is Illuminated

Today's Extremes

State Highs State Lows

Community

WunderPhotos

Upload Photos

1,928,345 photos uploaded!

WunderBlog® & News

Nearby

Air Quality

  Air Quality AQ Index Pollutant
Not available.

Snow Depth

Station Depth Elevation

Earthquake Activity

City Distance Mag. Time & Date
Minimum magnitude displayed is 2.5.

Coastal Water Temperatures

Place Temperature

Stations

Nearby Weather Stations

Station Location Temp. Windchill Dew Point Humidity Wind Precip. Elev Updated Type
                   

Watches & Warnings

There are currently no watches in effect.